createdAt,value
2018-07-22T00:05:59.223Z,18.24
2018-07-22T00:15:57.531Z,18.32
2018-07-22T00:25:53.543Z,18.14
2018-07-22T00:35:50.641Z,18.18
2018-07-22T00:45:49.424Z,18.04
2018-07-22T00:55:47.825Z,17.96
2018-07-22T01:05:44.481Z,17.98
2018-07-22T01:15:40.668Z,17.91
2018-07-22T01:25:39.778Z,17.91
2018-07-22T01:35:34.085Z,17.95
2018-07-22T01:45:29.885Z,17.92
2018-07-22T01:55:27.702Z,17.91
2018-07-22T02:05:26.266Z,17.85
2018-07-22T02:15:24.127Z,17.77
2018-07-22T02:25:20.778Z,17.76
2018-07-22T02:35:18.223Z,17.84
2018-07-22T02:45:12.453Z,17.73
2018-07-22T02:55:11.308Z,17.70
2018-07-22T03:05:09.141Z,17.79
2018-07-22T03:15:05.603Z,17.79
2018-07-22T03:25:04.979Z,17.64
2018-07-22T03:35:00.659Z,17.64
2018-07-22T03:44:58.416Z,17.60
2018-07-22T03:54:56.508Z,17.48
2018-07-22T04:04:51.329Z,17.36
2018-07-22T04:14:48.178Z,17.36
2018-07-22T04:24:47.469Z,17.39
2018-07-22T04:34:46.153Z,17.44
2018-07-22T04:44:40.948Z,17.50
2018-07-22T04:54:39.459Z,17.66
2018-07-22T05:04:35.326Z,17.70
2018-07-22T05:14:32.797Z,17.89
2018-07-22T05:24:28.717Z,18.24
2018-07-22T05:34:26.695Z,18.64
2018-07-22T05:44:25.311Z,18.67
2018-07-22T05:54:22.782Z,18.80
2018-07-22T06:04:20.377Z,18.90
2018-07-22T06:14:19.267Z,19.14
2018-07-22T06:24:15.829Z,19.60
2018-07-22T06:34:09.062Z,19.57
2018-07-22T06:44:05.565Z,19.64
2018-07-22T06:54:02.801Z,19.83
2018-07-22T07:04:00.974Z,19.93
2018-07-22T07:13:59.156Z,20.12
2018-07-22T07:23:53.571Z,20.34
2018-07-22T07:33:49.130Z,20.62
2018-07-22T07:43:43.267Z,20.93
2018-07-22T07:53:36.191Z,21.23
2018-07-22T08:03:34.551Z,21.35
2018-07-22T08:13:32.588Z,22.13
2018-07-22T08:23:29.429Z,22.20
2018-07-22T08:33:27.607Z,22.54
2018-07-22T08:43:22.388Z,23.09
2018-07-22T08:53:20.277Z,22.87
2018-07-22T09:03:14.300Z,23.34
2018-07-22T09:13:07.624Z,23.37
2018-07-22T09:23:06.112Z,23.56
2018-07-22T09:32:58.822Z,23.85
2018-07-22T09:42:58.239Z,24.82
2018-07-22T09:52:56.728Z,24.64
2018-07-22T10:02:52.030Z,24.38
2018-07-22T10:12:47.053Z,24.40
2018-07-22T10:22:46.548Z,25.16
2018-07-22T10:32:46.274Z,25.78
2018-07-22T10:42:43.031Z,25.38
2018-07-22T10:52:38.724Z,25.09
2018-07-22T11:02:38.049Z,26.09
2018-07-22T11:12:35.763Z,26.12
2018-07-22T11:22:33.639Z,25.42
2018-07-22T11:32:29.387Z,24.82
2018-07-22T11:42:24.818Z,24.71
2018-07-22T11:52:20.485Z,24.35
2018-07-22T12:02:13.266Z,24.47
2018-07-22T12:12:11.640Z,25.25
2018-07-22T12:22:11.465Z,25.77
2018-07-22T12:32:10.709Z,27.41
2018-07-22T12:42:05.991Z,25.79
2018-07-22T12:52:01.123Z,24.85
2018-07-22T13:01:57.631Z,24.37
2018-07-22T13:11:48.985Z,24.25
2018-07-22T13:21:45.038Z,23.92
2018-07-22T13:31:39.499Z,24.00
2018-07-22T13:41:39.273Z,26.83
2018-07-22T13:51:36.167Z,25.72
2018-07-22T14:01:30.453Z,24.79
2018-07-22T14:11:28.811Z,24.90
2018-07-22T14:21:25.072Z,24.97
2018-07-22T14:31:22.849Z,24.88
2018-07-22T14:41:20.562Z,24.35
2018-07-22T14:51:18.430Z,24.82
2018-07-22T15:01:16.188Z,24.40
2018-07-22T15:11:11.779Z,24.42
2018-07-22T15:21:07.197Z,24.16
2018-07-22T15:31:03.796Z,24.01
2018-07-22T15:41:00.849Z,24.00
2018-07-22T15:50:57.198Z,23.92
2018-07-22T16:00:52.736Z,23.78
2018-07-22T16:10:51.734Z,23.68
2018-07-22T16:20:50.148Z,23.49
2018-07-22T16:30:46.806Z,23.23
2018-07-22T16:40:41.173Z,23.09
2018-07-22T16:50:35.430Z,23.08
2018-07-22T17:00:32.319Z,22.90
2018-07-22T17:10:29.008Z,22.87
2018-07-22T17:20:23.543Z,22.69
2018-07-22T17:30:19.055Z,22.60
2018-07-22T17:40:15.444Z,22.34
2018-07-22T17:50:11.140Z,22.35
2018-07-22T18:00:08.507Z,22.24
2018-07-22T18:10:05.757Z,22.13
2018-07-22T18:20:02.161Z,22.07
2018-07-22T18:29:56.764Z,21.60
2018-07-22T18:39:53.610Z,21.61
2018-07-22T18:49:52.577Z,21.81
2018-07-22T18:59:50.214Z,22.04
2018-07-22T19:09:43.851Z,21.72
2018-07-22T19:19:40.928Z,21.75
2018-07-22T19:29:25.374Z,21.45
2018-07-22T19:39:19.600Z,21.64
2018-07-22T19:49:14.275Z,21.45
2018-07-22T19:59:08.678Z,21.44
2018-07-22T20:09:06.935Z,21.33
2018-07-22T20:19:04.035Z,20.99
2018-07-22T20:29:02.922Z,20.72
2018-07-22T20:38:55.818Z,20.27
2018-07-22T20:48:47.272Z,20.20
2018-07-22T20:58:45.753Z,20.26
2018-07-22T21:08:44.011Z,20.01
2018-07-22T21:18:42.037Z,19.80
2018-07-22T21:28:36.992Z,19.69
2018-07-22T21:38:34.942Z,19.55
2018-07-22T21:48:33.354Z,19.40
2018-07-22T21:58:29.250Z,19.21
2018-07-22T22:08:24.463Z,19.15
2018-07-22T22:18:23.291Z,19.13
2018-07-22T22:28:19.842Z,18.89
2018-07-22T22:38:17.504Z,18.79
2018-07-22T22:48:15.434Z,18.83
2018-07-22T22:58:11.123Z,18.76
2018-07-22T23:08:09.634Z,18.58
2018-07-22T23:18:06.314Z,18.62
2018-07-22T23:28:03.328Z,18.62
2018-07-22T23:38:02.288Z,18.68
2018-07-22T23:47:59.108Z,18.42
2018-07-22T23:57:55.591Z,18.34
